createdAt,value
2017-12-10T00:01:33.267Z,2.20
2017-12-10T00:04:00.751Z,2.40
2017-12-10T00:06:28.998Z,2.10
2017-12-10T00:09:13.536Z,1.90
2017-12-10T00:11:41.012Z,2.00
2017-12-10T00:14:08.507Z,1.80
2017-12-10T00:16:35.988Z,2.20
2017-12-10T00:19:03.480Z,1.90
2017-12-10T00:21:30.963Z,1.70
2017-12-10T00:23:59.211Z,2.00
2017-12-10T00:26:26.701Z,1.90
2017-12-10T00:28:54.959Z,1.70
2017-12-10T00:31:22.432Z,1.70
2017-12-10T00:33:50.688Z,1.60
2017-12-10T00:36:18.171Z,1.80
2017-12-10T00:38:46.415Z,1.50
2017-12-10T00:41:13.888Z,1.80
2017-12-10T00:43:41.372Z,1.50
2017-12-10T00:46:09.616Z,1.60
2017-12-10T00:48:37.103Z,1.50
2017-12-10T00:51:05.343Z,1.60
2017-12-10T00:53:32.832Z,1.60
2017-12-10T00:56:01.075Z,1.50
2017-12-10T00:58:28.567Z,1.40
2017-12-10T01:00:56.817Z,1.20
2017-12-10T01:03:24.291Z,1.30
2017-12-10T01:05:51.777Z,1.50
2017-12-10T01:08:19.275Z,1.50
2017-12-10T01:10:46.748Z,1.60
2017-12-10T01:13:14.231Z,1.40
2017-12-10T01:15:41.718Z,1.20
2017-12-10T01:18:09.206Z,1.30
2017-12-10T01:20:36.680Z,1.50
2017-12-10T01:23:04.164Z,1.50
2017-12-10T01:25:32.415Z,1.20
2017-12-10T01:27:59.899Z,1.40
2017-12-10T01:30:28.162Z,1.50
2017-12-10T01:32:55.640Z,1.30
2017-12-10T01:35:23.906Z,1.30
2017-12-10T01:37:51.388Z,1.60
2017-12-10T01:40:19.643Z,1.20
2017-12-10T01:42:47.883Z,1.40
2017-12-10T01:45:15.376Z,1.30
2017-12-10T01:47:42.872Z,1.30
2017-12-10T01:50:10.360Z,1.30
2017-12-10T01:52:37.837Z,1.40
2017-12-10T01:55:05.330Z,1.30
2017-12-10T01:57:32.870Z,1.30
2017-12-10T02:00:00.410Z,1.40
2017-12-10T02:02:27.965Z,1.20
2017-12-10T02:04:55.521Z,1.30
2017-12-10T02:07:23.053Z,1.10
2017-12-10T02:09:50.619Z,1.30
2017-12-10T02:12:18.126Z,1.30
2017-12-10T02:14:46.436Z,1.30
2017-12-10T02:17:13.986Z,1.40
2017-12-10T02:19:41.533Z,1.40
2017-12-10T02:22:09.868Z,1.30
2017-12-10T02:24:37.374Z,1.30
2017-12-10T02:27:05.677Z,1.20
2017-12-10T02:29:33.205Z,1.30
2017-12-10T02:32:01.494Z,1.30
2017-12-10T02:34:29.771Z,1.40
2017-12-10T02:36:57.342Z,1.30
2017-12-10T02:39:24.891Z,1.40
2017-12-10T02:41:52.425Z,1.30
2017-12-10T02:44:19.959Z,1.50
2017-12-10T02:46:47.513Z,1.40
2017-12-10T02:49:15.042Z,1.60
2017-12-10T02:51:42.604Z,1.60
2017-12-10T02:54:10.119Z,1.60
2017-12-10T02:56:38.442Z,1.40
2017-12-10T02:59:05.965Z,1.30
2017-12-10T03:01:34.285Z,1.50
2017-12-10T03:04:01.809Z,1.70
2017-12-10T03:06:30.121Z,1.70
2017-12-10T03:08:57.669Z,1.50
2017-12-10T03:11:25.208Z,1.60
2017-12-10T03:13:53.476Z,1.50
2017-12-10T03:16:20.969Z,1.80
2017-12-10T03:18:48.439Z,1.80
2017-12-10T03:21:15.918Z,1.50
2017-12-10T03:23:43.407Z,1.70
2017-12-10T03:26:10.884Z,1.50
2017-12-10T03:28:39.130Z,1.50
2017-12-10T03:31:06.608Z,1.60
2017-12-10T03:33:34.859Z,1.70
2017-12-10T03:36:02.340Z,1.50
2017-12-10T03:38:29.828Z,1.60
2017-12-10T03:40:57.312Z,1.40
2017-12-10T03:43:24.808Z,1.40
2017-12-10T03:45:52.287Z,1.60
2017-12-10T03:48:20.536Z,1.80
2017-12-10T03:50:48.011Z,1.70
2017-12-10T03:53:15.490Z,1.90
2017-12-10T03:55:42.962Z,1.70
2017-12-10T03:58:10.442Z,1.70
2017-12-10T04:00:37.913Z,1.90
2017-12-10T04:03:05.386Z,1.80
2017-12-10T04:05:32.853Z,1.60
2017-12-10T04:08:00.339Z,1.90
2017-12-10T04:10:27.820Z,1.90
2017-12-10T04:12:55.302Z,1.60
2017-12-10T04:15:22.782Z,1.90
2017-12-10T04:17:50.250Z,1.80
2017-12-10T04:20:18.494Z,1.60
2017-12-10T04:22:45.974Z,2.00
2017-12-10T04:25:13.460Z,1.60
2017-12-10T04:27:40.928Z,1.60
2017-12-10T04:30:08.407Z,1.90
2017-12-10T04:32:35.871Z,1.80
2017-12-10T04:35:03.355Z,1.80
2017-12-10T04:37:30.823Z,1.70
2017-12-10T04:39:58.307Z,1.60
2017-12-10T04:42:26.543Z,1.60
2017-12-10T04:44:54.023Z,1.60
2017-12-10T04:47:22.267Z,1.90
2017-12-10T04:49:49.755Z,1.70
2017-12-10T04:52:17.232Z,1.90
2017-12-10T04:54:45.470Z,1.90
2017-12-10T04:57:12.939Z,1.80
2017-12-10T04:59:40.443Z,1.60
2017-12-10T05:02:07.924Z,2.00
2017-12-10T05:04:35.412Z,2.10
2017-12-10T05:07:02.874Z,1.90
2017-12-10T05:09:30.356Z,1.70
2017-12-10T05:11:58.600Z,1.60
2017-12-10T05:14:26.072Z,1.80
2017-12-10T05:16:53.541Z,1.70
2017-12-10T05:19:21.835Z,1.60
2017-12-10T05:21:49.311Z,2.00
2017-12-10T05:24:16.787Z,1.60
2017-12-10T05:26:44.262Z,1.60
2017-12-10T05:29:11.739Z,1.70
2017-12-10T05:31:39.230Z,1.70
2017-12-10T05:34:06.707Z,1.50
2017-12-10T05:36:34.175Z,1.70
2017-12-10T05:39:01.646Z,1.60
2017-12-10T05:41:29.138Z,1.70
2017-12-10T05:43:57.372Z,1.40
2017-12-10T05:46:24.842Z,1.60
2017-12-10T05:48:52.306Z,1.80
2017-12-10T05:51:19.784Z,1.40
2017-12-10T05:53:47.258Z,1.70
2017-12-10T05:56:14.740Z,1.40
2017-12-10T05:58:42.231Z,1.40
2017-12-10T06:01:09.727Z,1.50
2017-12-10T06:03:37.279Z,1.50
2017-12-10T06:06:05.548Z,1.40
2017-12-10T06:08:33.030Z,1.60
2017-12-10T06:11:01.287Z,1.40
2017-12-10T06:13:29.546Z,1.50
2017-12-10T06:15:57.018Z,1.60
2017-12-10T06:18:24.557Z,1.30
2017-12-10T06:20:52.052Z,1.40
2017-12-10T06:23:20.289Z,1.50
2017-12-10T06:25:47.795Z,1.40
2017-12-10T06:28:15.399Z,1.30
2017-12-10T06:30:43.745Z,1.50
2017-12-10T06:33:11.294Z,1.30
2017-12-10T06:35:39.616Z,1.60
2017-12-10T06:38:07.082Z,1.60
2017-12-10T06:40:34.595Z,1.30
2017-12-10T06:43:02.150Z,1.40
2017-12-10T06:45:29.646Z,1.40
2017-12-10T06:47:57.126Z,1.50
2017-12-10T06:50:24.612Z,1.60
2017-12-10T06:52:52.074Z,1.70
2017-12-10T06:55:20.316Z,1.60
2017-12-10T06:57:47.814Z,1.70
2017-12-10T07:00:16.049Z,1.40
2017-12-10T07:02:43.523Z,1.50
2017-12-10T07:05:10.995Z,1.60
2017-12-10T07:07:39.244Z,1.70
2017-12-10T07:10:06.715Z,1.60
2017-12-10T07:12:34.195Z,1.70
2017-12-10T07:15:02.434Z,1.40
2017-12-10T07:17:29.919Z,1.70
2017-12-10T07:19:58.218Z,1.70
2017-12-10T07:22:25.734Z,1.50
2017-12-10T07:24:53.335Z,1.40
2017-12-10T07:27:21.583Z,1.50
2017-12-10T07:29:49.115Z,1.50
2017-12-10T07:32:16.650Z,1.20
2017-12-10T07:34:44.289Z,1.30
2017-12-10T07:37:12.523Z,1.20
2017-12-10T07:39:40.058Z,1.10
2017-12-10T07:42:07.562Z,1.30
2017-12-10T07:44:35.823Z,1.40
2017-12-10T07:47:03.347Z,1.30
2017-12-10T07:49:30.828Z,1.40
2017-12-10T07:51:58.321Z,1.70
2017-12-10T07:54:26.572Z,1.40
2017-12-10T07:56:54.094Z,1.40
2017-12-10T07:59:21.578Z,1.90
2017-12-10T08:01:49.150Z,1.50
2017-12-10T08:04:16.633Z,1.50
2017-12-10T08:06:44.901Z,1.60
2017-12-10T08:09:12.411Z,1.50
2017-12-10T08:11:39.880Z,1.80
2017-12-10T08:14:07.373Z,1.80
2017-12-10T08:16:34.852Z,1.60
2017-12-10T08:19:03.098Z,1.60
2017-12-10T08:21:30.571Z,1.60
2017-12-10T08:23:58.051Z,1.90
2017-12-10T08:26:25.526Z,1.70
2017-12-10T08:28:53.007Z,1.90
2017-12-10T08:31:20.486Z,1.70
2017-12-10T08:33:47.990Z,1.90
2017-12-10T08:36:15.455Z,2.00
2017-12-10T08:38:42.927Z,2.20
2017-12-10T08:41:10.405Z,1.90
2017-12-10T08:43:37.891Z,2.10
2017-12-10T08:46:05.358Z,1.90
2017-12-10T08:48:33.599Z,1.90
2017-12-10T08:51:01.143Z,2.20
2017-12-10T08:53:28.614Z,2.00
2017-12-10T08:55:56.095Z,1.70
2017-12-10T08:58:23.573Z,1.80
2017-12-10T09:00:51.811Z,2.30
2017-12-10T09:03:20.050Z,2.10
2017-12-10T09:05:47.539Z,2.10
2017-12-10T09:08:15.070Z,2.30
2017-12-10T09:10:42.505Z,2.40
2017-12-10T09:13:10.731Z,2.80
2017-12-10T09:15:38.209Z,2.40
2017-12-10T09:18:05.683Z,2.70
2017-12-10T09:20:33.155Z,2.60
2017-12-10T09:23:01.407Z,2.80
2017-12-10T09:25:28.882Z,2.70
2017-12-10T09:27:57.132Z,2.90
2017-12-10T09:30:24.606Z,3.00
2017-12-10T09:32:52.071Z,3.30
2017-12-10T09:35:20.315Z,3.30
2017-12-10T09:37:47.778Z,3.10
2017-12-10T09:40:16.026Z,3.40
2017-12-10T09:42:43.498Z,3.00
2017-12-10T09:45:10.982Z,3.40
2017-12-10T09:47:38.446Z,3.30
2017-12-10T09:50:05.927Z,3.30
2017-12-10T09:52:34.163Z,3.30
2017-12-10T09:55:01.649Z,3.00
2017-12-10T09:57:29.110Z,3.20
2017-12-10T09:59:57.339Z,3.60
2017-12-10T10:02:24.818Z,3.30
2017-12-10T10:04:52.293Z,3.60
2017-12-10T10:07:19.798Z,3.00
2017-12-10T10:09:47.263Z,3.10
2017-12-10T10:12:14.743Z,3.10
2017-12-10T10:14:42.218Z,3.00
2017-12-10T10:17:09.711Z,3.10
2017-12-10T10:19:37.179Z,2.80
2017-12-10T10:22:04.663Z,2.70
2017-12-10T10:24:32.145Z,2.90
2017-12-10T10:26:59.614Z,2.90
2017-12-10T10:29:27.087Z,3.10
2017-12-10T10:31:55.365Z,3.00
2017-12-10T10:34:22.819Z,3.00
2017-12-10T10:36:51.077Z,2.60
2017-12-10T10:39:18.543Z,2.70
2017-12-10T10:41:46.023Z,2.70
2017-12-10T10:44:14.264Z,2.60
2017-12-10T10:46:41.767Z,2.50
2017-12-10T10:49:09.235Z,2.40
2017-12-10T10:51:36.698Z,2.80
2017-12-10T10:54:04.192Z,2.50
2017-12-10T10:56:31.658Z,2.60
2017-12-10T10:58:59.155Z,2.60
2017-12-10T11:01:26.633Z,2.20
2017-12-10T11:03:54.162Z,2.30
2017-12-10T11:06:21.595Z,2.30
2017-12-10T11:08:49.074Z,2.40
2017-12-10T11:11:17.319Z,2.30
2017-12-10T11:13:44.804Z,2.20
2017-12-10T11:16:13.039Z,2.10
2017-12-10T11:18:40.522Z,2.20
2017-12-10T11:21:07.986Z,2.30
2017-12-10T11:23:35.462Z,2.30
2017-12-10T11:26:03.707Z,2.00
2017-12-10T11:28:31.185Z,2.30
2017-12-10T11:30:59.446Z,2.20
2017-12-10T11:33:26.919Z,1.90
2017-12-10T11:35:55.152Z,2.30
2017-12-10T11:38:22.635Z,2.00
2017-12-10T11:40:50.101Z,2.10
2017-12-10T11:43:17.574Z,2.10
2017-12-10T11:45:45.810Z,2.20
2017-12-10T11:48:13.292Z,2.20
2017-12-10T11:50:40.768Z,2.00
2017-12-10T11:53:09.015Z,2.20
2017-12-10T11:55:36.483Z,1.90
2017-12-10T11:58:03.962Z,2.20
2017-12-10T12:00:32.194Z,2.20
2017-12-10T12:02:59.663Z,1.80
2017-12-10T12:05:27.134Z,2.00
2017-12-10T12:07:54.608Z,2.00
2017-12-10T12:10:22.083Z,2.00
2017-12-10T12:12:50.314Z,1.70
2017-12-10T12:15:17.786Z,1.80
2017-12-10T12:17:45.254Z,2.10
2017-12-10T12:20:13.504Z,2.00
2017-12-10T12:22:40.966Z,2.10
2017-12-10T12:25:08.454Z,2.00
2017-12-10T12:27:35.926Z,2.30
2017-12-10T12:30:03.422Z,1.80
2017-12-10T12:32:30.895Z,2.10
2017-12-10T12:34:58.371Z,2.00
2017-12-10T12:37:25.839Z,2.00
2017-12-10T12:39:54.094Z,2.10
2017-12-10T12:42:21.571Z,2.10
2017-12-10T12:44:49.078Z,1.90
2017-12-10T12:47:16.585Z,2.10
2017-12-10T12:49:44.063Z,2.00
2017-12-10T12:52:12.299Z,1.50
2017-12-10T12:54:39.783Z,1.50
2017-12-10T12:57:08.082Z,1.60
2017-12-10T12:59:36.312Z,1.80
2017-12-10T13:02:03.790Z,1.70
2017-12-10T13:04:31.260Z,2.00
2017-12-10T13:06:59.500Z,1.90
2017-12-10T13:09:27.762Z,1.70
2017-12-10T13:11:55.240Z,1.70
2017-12-10T13:14:22.706Z,2.00
2017-12-10T13:16:50.183Z,1.70
2017-12-10T13:19:18.416Z,1.90
2017-12-10T13:21:45.887Z,1.80
2017-12-10T13:24:13.362Z,2.10
2017-12-10T13:26:40.839Z,1.90
2017-12-10T13:29:09.081Z,2.00
2017-12-10T13:31:36.553Z,2.00
2017-12-10T13:34:04.018Z,1.70
2017-12-10T13:36:32.262Z,1.90
2017-12-10T13:38:59.738Z,1.70
2017-12-10T13:41:27.237Z,2.00
2017-12-10T13:43:55.848Z,2.00
2017-12-10T13:46:23.319Z,1.70
2017-12-10T13:48:51.564Z,1.50
2017-12-10T13:51:19.060Z,1.80
2017-12-10T13:53:46.540Z,1.90
2017-12-10T13:56:13.998Z,1.70
2017-12-10T13:58:41.486Z,1.40
2017-12-10T14:01:09.719Z,1.40
2017-12-10T14:03:37.207Z,1.40
2017-12-10T14:06:05.447Z,1.30
2017-12-10T14:08:32.928Z,1.50
2017-12-10T14:11:00.387Z,1.50
2017-12-10T14:13:27.878Z,1.40
2017-12-10T14:15:55.346Z,1.20
2017-12-10T14:18:22.831Z,1.20
2017-12-10T14:20:50.354Z,1.10
2017-12-10T14:23:17.841Z,0.90
2017-12-10T14:25:45.302Z,0.90
2017-12-10T14:28:12.780Z,0.80
2017-12-10T14:30:40.258Z,1.30
2017-12-10T14:33:07.739Z,1.00
2017-12-10T14:35:35.208Z,0.90
2017-12-10T14:38:02.689Z,1.20
2017-12-10T14:40:30.153Z,0.90
2017-12-10T14:42:57.644Z,0.90
2017-12-10T14:45:25.111Z,1.20
2017-12-10T14:47:53.355Z,0.90
2017-12-10T14:50:20.817Z,0.80
2017-12-10T14:52:48.334Z,0.90
2017-12-10T14:55:15.807Z,1.10
2017-12-10T14:57:43.297Z,1.00
2017-12-10T15:00:10.899Z,1.20
2017-12-10T15:02:39.131Z,1.20
2017-12-10T15:05:06.606Z,1.20
2017-12-10T15:07:34.090Z,0.90
2017-12-10T15:10:02.378Z,0.90
2017-12-10T15:12:29.795Z,0.70
2017-12-10T15:14:57.331Z,0.60
2017-12-10T15:17:24.859Z,0.50
2017-12-10T15:19:52.343Z,0.40
2017-12-10T15:22:19.814Z,0.90
2017-12-10T15:24:47.296Z,0.60
2017-12-10T15:27:14.761Z,0.70
2017-12-10T15:29:43.011Z,0.60
2017-12-10T15:32:10.484Z,0.60
2017-12-10T15:34:37.970Z,0.50
2017-12-10T15:37:06.284Z,0.40
2017-12-10T15:39:33.773Z,0.70
2017-12-10T15:42:01.267Z,0.30
2017-12-10T15:44:28.752Z,0.60
2017-12-10T15:46:56.226Z,0.50
2017-12-10T15:49:23.687Z,0.40
2017-12-10T15:51:51.172Z,0.80
2017-12-10T15:54:18.638Z,0.40
2017-12-10T15:56:46.883Z,0.30
2017-12-10T15:59:14.350Z,0.60
2017-12-10T16:01:41.839Z,0.40
2017-12-10T16:04:10.078Z,0.20
2017-12-10T16:06:37.564Z,0.40
2017-12-10T16:09:05.859Z,0.30
2017-12-10T16:11:33.372Z,0.40
2017-12-10T16:14:00.840Z,0.20
2017-12-10T16:16:28.331Z,0.30
2017-12-10T16:18:55.804Z,0.40
2017-12-10T16:21:23.288Z,0.30
2017-12-10T16:23:50.755Z,0.50
2017-12-10T16:26:18.236Z,0.10
2017-12-10T16:28:45.711Z,0.20
2017-12-10T16:31:13.958Z,0.30
2017-12-10T16:33:41.427Z,0.40
2017-12-10T16:36:08.903Z,0.60
2017-12-10T16:38:37.172Z,0.60
2017-12-10T16:41:04.607Z,0.40
2017-12-10T16:43:32.088Z,0.30
2017-12-10T16:46:00.335Z,0.30
2017-12-10T16:48:27.812Z,0.20
2017-12-10T16:50:55.295Z,0.30
2017-12-10T16:53:23.526Z,0.30
2017-12-10T16:55:51.078Z,0.20
2017-12-10T16:58:19.247Z,0.60
2017-12-10T17:00:46.736Z,0.40
2017-12-10T17:03:14.215Z,0.50
2017-12-10T17:05:42.447Z,0.60
2017-12-10T17:08:09.928Z,0.60
2017-12-10T17:10:37.403Z,0.60
2017-12-10T17:13:05.675Z,0.50
2017-12-10T17:15:33.152Z,0.50
2017-12-10T17:18:00.627Z,0.40
2017-12-10T17:20:28.096Z,0.20
2017-12-10T17:22:55.579Z,0.50
2017-12-10T17:25:23.082Z,0.40
2017-12-10T17:27:50.563Z,0.50
2017-12-10T17:30:18.033Z,0.60
2017-12-10T17:32:45.506Z,0.60
2017-12-10T17:35:13.742Z,0.50
2017-12-10T17:37:41.225Z,0.50
2017-12-10T17:40:08.702Z,0.60
2017-12-10T17:42:36.182Z,0.60
2017-12-10T17:45:03.663Z,0.80
2017-12-10T17:47:31.918Z,1.20
2017-12-10T17:49:59.375Z,0.90
2017-12-10T17:52:26.866Z,1.00
2017-12-10T17:54:54.348Z,0.90
2017-12-10T17:57:21.815Z,1.20
2017-12-10T17:59:49.294Z,0.90
2017-12-10T18:02:16.766Z,0.80
2017-12-10T18:04:44.240Z,1.40
2017-12-10T18:07:12.472Z,1.30
2017-12-10T18:09:39.955Z,1.10
2017-12-10T18:12:07.427Z,0.90
2017-12-10T18:14:35.670Z,0.80
2017-12-10T18:17:03.137Z,1.00
2017-12-10T18:19:30.615Z,0.90
2017-12-10T18:21:58.086Z,1.00
2017-12-10T18:24:26.343Z,1.30
2017-12-10T18:26:53.816Z,1.20
2017-12-10T18:29:22.068Z,1.20
2017-12-10T18:31:49.557Z,1.30
2017-12-10T18:34:17.795Z,1.80
2017-12-10T18:36:45.268Z,1.40
2017-12-10T18:39:12.745Z,1.60
2017-12-10T18:41:40.975Z,2.00
2017-12-10T18:44:08.450Z,2.20
2017-12-10T18:46:35.918Z,1.90
2017-12-10T18:49:03.394Z,2.30
2017-12-10T18:51:31.637Z,2.50
2017-12-10T18:53:59.122Z,2.40
2017-12-10T18:56:27.395Z,2.70
2017-12-10T18:58:55.663Z,3.00
2017-12-10T19:01:23.133Z,2.80
2017-12-10T19:03:51.366Z,3.10
2017-12-10T19:06:18.834Z,3.10
2017-12-10T19:08:46.305Z,3.10
2017-12-10T19:11:13.785Z,3.20
2017-12-10T19:13:42.028Z,3.30
2017-12-10T19:16:09.503Z,3.30
2017-12-10T19:18:36.984Z,3.20
2017-12-10T19:21:05.230Z,3.20
2017-12-10T19:23:32.714Z,3.40
2017-12-10T19:26:00.953Z,3.80
2017-12-10T19:28:28.422Z,3.40
2017-12-10T19:30:55.900Z,3.80
2017-12-10T19:33:23.379Z,3.70
2017-12-10T19:35:51.630Z,3.90
2017-12-10T19:38:19.879Z,4.00
2017-12-10T19:40:47.351Z,3.90
2017-12-10T19:43:14.823Z,4.00
2017-12-10T19:45:42.303Z,3.90
2017-12-10T19:48:10.539Z,4.10
2017-12-10T19:50:38.015Z,4.20
2017-12-10T19:53:05.478Z,4.10
2017-12-10T19:55:33.751Z,4.30
2017-12-10T19:58:01.220Z,4.40
2017-12-10T20:00:29.454Z,4.40
2017-12-10T20:02:56.934Z,4.50
2017-12-10T20:05:24.395Z,4.30
2017-12-10T20:07:51.888Z,4.70
2017-12-10T20:10:19.374Z,4.40
2017-12-10T20:12:46.851Z,4.50
2017-12-10T20:15:14.318Z,4.50
2017-12-10T20:17:41.801Z,4.60
2017-12-10T20:20:10.035Z,4.80
2017-12-10T20:22:37.518Z,4.60
2017-12-10T20:25:05.027Z,4.80
2017-12-10T20:27:32.502Z,4.80
2017-12-10T20:29:59.964Z,4.50
2017-12-10T20:32:27.439Z,4.70
2017-12-10T20:34:54.957Z,4.60
2017-12-10T20:37:22.445Z,5.00
2017-12-10T20:39:50.674Z,5.10
2017-12-10T20:42:18.153Z,4.80
2017-12-10T20:44:45.618Z,4.90
2017-12-10T20:47:13.094Z,5.20
2017-12-10T20:49:40.567Z,5.30
2017-12-10T20:52:08.051Z,5.30
2017-12-10T20:54:35.514Z,5.50
2017-12-10T20:57:03.772Z,5.60
2017-12-10T20:59:31.235Z,5.50
2017-12-10T21:01:58.744Z,5.50
2017-12-10T21:04:26.222Z,5.60
2017-12-10T21:06:53.688Z,5.60
2017-12-10T21:09:21.171Z,5.60
2017-12-10T21:11:49.408Z,5.70
2017-12-10T21:14:16.906Z,5.80
2017-12-10T21:16:44.372Z,6.00
2017-12-10T21:19:12.616Z,6.10
2017-12-10T21:21:40.088Z,6.10
2017-12-10T21:24:07.579Z,6.00
2017-12-10T21:26:35.062Z,6.20
2017-12-10T21:29:02.543Z,6.10
2017-12-10T21:31:30.003Z,6.20
2017-12-10T21:33:57.490Z,6.20
2017-12-10T21:36:24.968Z,6.20
2017-12-10T21:38:53.208Z,6.20
2017-12-10T21:41:20.690Z,6.40
2017-12-10T21:43:48.932Z,6.30
2017-12-10T21:46:16.414Z,6.20
2017-12-10T21:48:43.887Z,6.30
2017-12-10T21:51:12.132Z,6.40
2017-12-10T21:53:39.615Z,6.30
2017-12-10T21:56:07.085Z,6.60
2017-12-10T21:58:35.322Z,6.50
2017-12-10T22:01:02.804Z,6.60
2017-12-10T22:03:31.079Z,6.40
2017-12-10T22:05:59.318Z,6.50
2017-12-10T22:08:26.803Z,6.40
2017-12-10T22:10:54.270Z,6.40
2017-12-10T22:13:21.738Z,6.50
2017-12-10T22:15:50.001Z,6.40
2017-12-10T22:18:17.476Z,6.60
2017-12-10T22:20:45.731Z,6.60
2017-12-10T22:23:13.222Z,6.70
2017-12-10T22:25:41.460Z,6.60
2017-12-10T22:28:08.937Z,6.70
2017-12-10T22:30:37.205Z,6.50
2017-12-10T22:33:04.671Z,6.80
2017-12-10T22:35:32.143Z,6.30
2017-12-10T22:38:00.383Z,6.30
2017-12-10T22:40:27.860Z,6.30
2017-12-10T22:42:55.334Z,6.00
2017-12-10T22:45:23.571Z,6.00
2017-12-10T22:47:51.038Z,6.10
2017-12-10T22:50:18.523Z,6.20
2017-12-10T22:52:46.750Z,6.60
2017-12-10T22:55:14.214Z,6.40
2017-12-10T22:57:41.687Z,6.20
2017-12-10T23:00:09.159Z,6.20
2017-12-10T23:02:36.623Z,6.40
2017-12-10T23:05:04.868Z,6.50
2017-12-10T23:07:33.107Z,6.50
2017-12-10T23:10:00.580Z,6.70
2017-12-10T23:12:28.059Z,6.60
2017-12-10T23:17:51.202Z,6.60
2017-12-10T23:20:25.312Z,6.80
2017-12-10T23:22:52.772Z,6.60
2017-12-10T23:25:20.224Z,6.70
2017-12-10T23:27:47.694Z,6.90
2017-12-10T23:30:15.155Z,6.90
2017-12-10T23:32:42.615Z,6.70
2017-12-10T23:35:10.074Z,6.70
2017-12-10T23:37:37.555Z,6.70
2017-12-10T23:40:05.010Z,6.90
2017-12-10T23:42:32.491Z,6.90
2017-12-10T23:44:59.967Z,6.70
2017-12-10T23:47:28.200Z,6.70
2017-12-10T23:49:55.659Z,6.70
2017-12-10T23:52:23.130Z,6.70
2017-12-10T23:54:50.591Z,6.60
2017-12-10T23:57:18.070Z,6.60
2017-12-10T23:59:45.528Z,6.60
